Time;durP1;ratioP1;P1;durP2;ratioP2;P2;SDS_P1;SDS_P2;PMS_P1;PMS_P2;Temp;Humidity;BMP_temperature;BMP_pressure;BME280_temperature;BME280_humidity;BME280_pressure;Samples;Min_cycle;Max_cycle;Signal;HPM_P1;HPM_P2
2022/01/29 00:00:54;;;;;;;1.58;0.80;;;18.00;52.40;;;;;;6224411;23;20603;-82
2022/01/29 00:03:20;;;;;;;1.48;0.70;;;18.00;52.10;;;;;;6197529;23;20125;-82
2022/01/29 00:05:46;;;;;;;0.60;0.60;;;18.00;52.20;;;;;;6223645;23;20682;-82
2022/01/29 00:08:12;;;;;;;0.70;0.50;;;18.00;52.00;;;;;;6174223;23;20176;-82
2022/01/29 00:10:37;;;;;;;0.90;0.77;;;18.00;52.00;;;;;;6224391;23;20583;-82
2022/01/29 00:13:03;;;;;;;0.80;0.60;;;18.00;52.20;;;;;;6224386;23;20187;-82
2022/01/29 00:15:29;;;;;;;1.50;0.68;;;18.00;52.30;;;;;;6174006;23;20147;-82
2022/01/29 00:17:54;;;;;;;0.80;0.60;;;18.00;52.30;;;;;;6224531;23;20136;-82
2022/01/29 00:20:20;;;;;;;0.80;0.70;;;18.00;52.20;;;;;;6198971;23;20164;-82
2022/01/29 00:22:46;;;;;;;1.02;0.70;;;18.00;52.30;;;;;;6173952;23;20610;-82
2022/01/29 00:25:11;;;;;;;1.10;0.60;;;18.00;52.20;;;;;;6174430;23;20176;-82
2022/01/29 00:27:37;;;;;;;1.70;0.60;;;18.00;52.40;;;;;;6122648;23;20148;-82
2022/01/29 00:30:07;;;;;;;1.40;0.60;;;17.90;52.10;;;;;;6122444;23;20132;-82
2022/01/29 00:32:34;;;;;;;0.60;0.60;;;18.00;51.80;;;;;;6221273;23;20570;-81
2022/01/29 00:35:00;;;;;;;0.75;0.50;;;18.00;52.10;;;;;;6122339;23;20172;-82
2022/01/29 00:37:26;;;;;;;1.48;0.70;;;18.00;52.10;;;;;;6224518;23;20132;-82
2022/01/29 00:39:51;;;;;;;1.20;0.73;;;18.00;52.10;;;;;;6198940;23;20141;-82
2022/01/29 00:42:17;;;;;;;1.85;0.80;;;18.00;51.70;;;;;;6224073;23;20168;-82
2022/01/29 00:44:43;;;;;;;1.48;0.60;;;18.00;51.80;;;;;;6174049;23;20436;-82
2022/01/29 00:47:09;;;;;;;0.85;0.50;;;18.10;52.10;;;;;;6198840;23;20144;-82
2022/01/29 00:49:35;;;;;;;1.17;0.70;;;18.00;51.90;;;;;;6198539;23;20198;-82
2022/01/29 00:52:00;;;;;;;0.75;0.70;;;18.00;51.90;;;;;;6122378;23;20167;-82
2022/01/29 00:54:26;;;;;;;2.92;0.90;;;17.90;51.90;;;;;;6199293;23;20133;-82
2022/01/29 00:56:52;;;;;;;2.28;0.70;;;18.00;52.00;;;;;;6223711;23;20140;-82
2022/01/29 00:59:17;;;;;;;2.10;0.70;;;18.00;52.00;;;;;;6223909;22;20594;-82
2022/01/29 01:01:43;;;;;;;1.02;0.60;;;18.10;52.10;;;;;;6198452;23;20602;-82
2022/01/29 01:04:11;;;;;;;0.63;0.55;;;18.00;51.90;;;;;;6223819;23;20136;-82
2022/01/29 01:06:36;;;;;;;1.95;0.70;;;18.00;51.70;;;;;;6123883;23;20241;-82
2022/01/29 01:09:02;;;;;;;0.60;0.50;;;18.00;51.80;;;;;;6198604;23;20568;-82
2022/01/29 01:11:28;;;;;;;1.08;0.70;;;18.00;52.00;;;;;;6174291;23;20140;-82
2022/01/29 01:13:55;;;;;;;0.75;0.60;;;18.00;51.80;;;;;;6224131;23;20167;-82
2022/01/29 01:16:21;;;;;;;0.75;0.57;;;18.00;51.70;;;;;;6172772;23;20160;-82
2022/01/29 01:18:48;;;;;;;1.05;0.50;;;18.00;51.70;;;;;;6172707;23;20156;-82
2022/01/29 01:21:14;;;;;;;0.80;0.60;;;17.90;51.60;;;;;;6173635;23;20243;-82
2022/01/29 01:23:41;;;;;;;0.47;0.43;;;18.00;51.80;;;;;;6123808;23;20156;-82
2022/01/29 01:26:08;;;;;;;1.00;0.50;;;18.00;51.70;;;;;;6147816;23;20262;-82
2022/01/29 01:28:33;;;;;;;1.27;0.73;;;18.00;51.90;;;;;;6223728;23;20216;-82
2022/01/29 01:30:59;;;;;;;1.13;0.73;;;18.00;51.60;;;;;;6198673;23;20175;-82
2022/01/29 01:33:25;;;;;;;2.08;0.70;;;18.00;51.90;;;;;;6198859;23;20132;-82
2022/01/29 01:35:55;;;;;;;0.57;0.50;;;17.90;51.90;;;;;;6174138;23;20572;-82
2022/01/29 01:38:32;;;;;;;0.77;0.50;;;18.00;51.60;;;;;;6223482;23;20155;-82
2022/01/29 01:41:02;;;;;;;0.98;0.80;;;18.00;51.90;;;;;;6213741;23;20498;-82
2022/01/29 01:43:28;;;;;;;1.27;0.65;;;17.90;51.70;;;;;;6195511;23;20129;-83
2022/01/29 01:45:54;;;;;;;1.05;0.70;;;17.90;51.70;;;;;;6173286;23;20183;-82
2022/01/29 01:48:20;;;;;;;0.60;0.40;;;17.90;51.90;;;;;;6121640;23;20583;-82
2022/01/29 01:50:45;;;;;;;1.00;0.70;;;17.90;51.70;;;;;;6121995;23;20147;-82
2022/01/29 01:53:11;;;;;;;2.28;0.70;;;18.00;51.70;;;;;;6198546;23;20147;-82
2022/01/29 01:55:37;;;;;;;2.40;0.70;;;17.90;51.90;;;;;;6199046;23;20144;-82
2022/01/29 01:58:03;;;;;;;1.10;0.60;;;17.90;51.90;;;;;;6129194;22;20212;-82
2022/01/29 02:00:29;;;;;;;1.00;0.60;;;17.90;52.20;;;;;;6254702;22;20132;-82
2022/01/29 02:02:55;;;;;;;0.68;0.50;;;17.90;51.80;;;;;;6230704;22;20193;-82
2022/01/29 02:05:20;;;;;;;1.02;0.50;;;17.90;51.90;;;;;;6282333;22;20174;-82
2022/01/29 02:07:46;;;;;;;2.20;0.60;;;18.00;51.70;;;;;;6282174;22;20535;-82
2022/01/29 02:10:12;;;;;;;1.52;0.80;;;18.00;51.80;;;;;;6257030;22;20132;-82
2022/01/29 02:12:51;;;;;;;1.63;0.70;;;18.00;51.80;;;;;;6256904;22;20497;-82
2022/01/29 02:15:18;;;;;;;0.95;0.60;;;17.90;51.70;;;;;;6256415;22;20251;-82
2022/01/29 02:17:45;;;;;;;1.85;0.88;;;17.90;51.60;;;;;;6256457;22;20190;-82
2022/01/29 02:20:12;;;;;;;1.00;0.70;;;17.90;51.50;;;;;;6256904;22;20140;-82
2022/01/29 02:22:41;;;;;;;1.13;0.60;;;17.90;51.80;;;;;;6309386;22;20132;-82
2022/01/29 02:25:26;;;;;;;2.20;0.77;;;17.90;51.70;;;;;;6282611;22;20168;-82
2022/01/29 02:27:52;;;;;;;1.60;0.60;;;17.90;52.00;;;;;;6282294;22;20647;-82
2022/01/29 02:30:18;;;;;;;1.33;0.60;;;17.90;51.80;;;;;;6281898;22;20136;-82
2022/01/29 02:32:45;;;;;;;1.30;0.75;;;17.90;51.70;;;;;;6281741;22;20128;-82
2022/01/29 02:35:11;;;;;;;1.95;0.90;;;17.90;51.90;;;;;;6309008;22;20219;-82
2022/01/29 02:37:37;;;;;;;0.93;0.60;;;17.90;52.10;;;;;;6281983;22;20129;-82
2022/01/29 02:40:03;;;;;;;1.05;0.30;;;17.90;51.80;;;;;;6309282;22;20131;-82
2022/01/29 02:42:29;;;;;;;0.90;0.60;;;17.90;51.90;;;;;;6256611;22;20164;-82
2022/01/29 02:44:55;;;;;;;1.25;0.68;;;17.90;51.90;;;;;;6282112;22;20213;-82
2022/01/29 02:47:31;;;;;;;1.65;0.68;;;17.90;51.90;;;;;;6231069;22;20151;-82
2022/01/29 02:49:56;;;;;;;1.05;0.60;;;17.90;51.90;;;;;;6258276;22;20219;-82
2022/01/29 02:52:22;;;;;;;1.00;0.60;;;17.90;51.90;;;;;;6281980;22;20174;-82
2022/01/29 02:54:48;;;;;;;1.25;0.60;;;17.90;52.10;;;;;;6308989;22;20160;-82
2022/01/29 02:57:14;;;;;;;2.38;0.70;;;17.80;52.10;;;;;;6255927;22;20147;-82
2022/01/29 02:59:39;;;;;;;0.90;0.80;;;17.80;51.80;;;;;;6233936;22;20202;-82
2022/01/29 03:02:05;;;;;;;1.13;0.60;;;17.80;51.70;;;;;;6175053;23;20144;-82
2022/01/29 03:04:31;;;;;;;1.52;0.60;;;17.80;51.80;;;;;;6224769;23;20637;-83
2022/01/29 03:06:58;;;;;;;0.52;0.47;;;17.80;51.90;;;;;;6224812;23;20206;-82
2022/01/29 03:09:23;;;;;;;0.93;0.55;;;17.80;51.80;;;;;;6173705;23;20156;-82
2022/01/29 03:11:49;;;;;;;0.85;0.55;;;17.80;52.00;;;;;;6199577;23;20191;-82
2022/01/29 03:14:15;;;;;;;0.80;0.70;;;17.80;51.90;;;;;;6199910;23;20141;-82
2022/01/29 03:16:40;;;;;;;0.70;0.50;;;17.90;52.00;;;;;;6224584;23;20145;-82
2022/01/29 03:19:06;;;;;;;1.50;0.60;;;17.80;51.70;;;;;;6224724;23;20215;-82
2022/01/29 03:21:31;;;;;;;1.08;0.70;;;17.80;51.90;;;;;;6199769;23;20143;-82
2022/01/29 03:23:57;;;;;;;0.95;0.70;;;17.80;52.10;;;;;;6122350;23;20139;-83
2022/01/29 03:26:23;;;;;;;0.93;0.60;;;17.80;52.00;;;;;;6123059;23;20226;-82
2022/01/29 03:28:48;;;;;;;1.38;0.50;;;17.80;52.00;;;;;;6174922;23;20650;-82
2022/01/29 03:31:14;;;;;;;1.38;0.60;;;17.80;52.00;;;;;;6174387;23;20151;-82
2022/01/29 03:33:40;;;;;;;1.05;0.70;;;17.80;52.00;;;;;;6199602;23;20152;-82
2022/01/29 03:36:05;;;;;;;1.42;0.68;;;17.80;51.90;;;;;;6199149;23;20208;-82
2022/01/29 03:38:31;;;;;;;1.08;0.55;;;17.80;52.00;;;;;;6199641;23;20552;-82
2022/01/29 03:40:58;;;;;;;0.55;0.50;;;17.80;51.80;;;;;;6199799;23;20145;-82
2022/01/29 03:43:29;;;;;;;0.52;0.50;;;17.80;52.30;;;;;;6175345;23;20553;-82
2022/01/29 03:45:55;;;;;;;1.33;0.57;;;17.70;52.10;;;;;;6200506;23;20270;-82
2022/01/29 03:48:22;;;;;;;1.20;0.65;;;17.70;52.40;;;;;;6199597;23;20143;-82
2022/01/29 03:50:47;;;;;;;1.40;0.70;;;17.70;52.10;;;;;;6174903;23;20190;-82
2022/01/29 03:53:13;;;;;;;0.60;0.50;;;17.70;52.60;;;;;;6199210;23;20137;-82
2022/01/29 03:55:39;;;;;;;0.95;0.43;;;17.60;52.00;;;;;;6199060;23;20633;-82
2022/01/29 03:58:05;;;;;;;1.38;0.70;;;17.70;52.20;;;;;;6160170;23;20147;-82
2022/01/29 04:00:30;;;;;;;0.80;0.50;;;17.70;52.00;;;;;;6164161;23;20154;-82
2022/01/29 04:02:56;;;;;;;1.20;0.60;;;17.70;52.30;;;;;;6189036;23;20150;-82
2022/01/29 04:05:21;;;;;;;0.88;0.57;;;17.80;52.10;;;;;;6213611;23;20240;-82
2022/01/29 04:07:47;;;;;;;0.70;0.50;;;17.70;52.00;;;;;;6188526;23;20157;-82
2022/01/29 04:10:13;;;;;;;1.20;0.68;;;17.80;52.00;;;;;;6154072;23;20478;-82
2022/01/29 04:12:45;;;;;;;1.02;0.60;;;17.80;52.20;;;;;;6104991;23;20162;-82
2022/01/29 04:15:12;;;;;;;0.93;0.70;;;17.70;51.90;;;;;;6129661;23;20155;-82
2022/01/29 04:17:38;;;;;;;1.30;0.50;;;17.70;52.00;;;;;;6129471;23;20285;-82
2022/01/29 04:20:04;;;;;;;1.45;0.50;;;17.70;51.90;;;;;;6080399;23;20151;-82
2022/01/29 04:22:30;;;;;;;0.80;0.60;;;17.70;52.20;;;;;;6129397;23;20159;-83
2022/01/29 04:24:56;;;;;;;1.52;0.57;;;17.70;52.10;;;;;;6104473;23;20234;-82
2022/01/29 04:27:32;;;;;;;0.90;0.50;;;17.80;51.90;;;;;;6129190;23;20136;-82
2022/01/29 04:29:59;;;;;;;1.00;0.60;;;17.80;51.90;;;;;;6153946;23;20157;-83
2022/01/29 04:35:03;;;;;;;0.80;0.60;;;17.70;51.90;;;;;;6170264;23;20715;-82
2022/01/29 04:37:29;;;;;;;1.05;0.60;;;17.70;52.40;;;;;;6213805;23;20169;-82
2022/01/29 04:39:55;;;;;;;0.90;0.52;;;17.70;51.90;;;;;;6213389;23;20134;-82
2022/01/29 04:42:22;;;;;;;1.85;0.77;;;17.70;52.10;;;;;;6198330;23;20163;-82
2022/01/29 04:44:48;;;;;;;1.27;0.50;;;17.60;52.30;;;;;;6199441;23;20178;-82
2022/01/29 04:47:14;;;;;;;1.35;0.55;;;17.60;52.30;;;;;;6224128;23;20136;-82
2022/01/29 04:49:40;;;;;;;1.27;0.50;;;17.60;52.00;;;;;;6224313;23;20586;-82
2022/01/29 04:52:06;;;;;;;1.08;0.52;;;17.60;52.20;;;;;;6199334;23;20144;-82
2022/01/29 04:54:33;;;;;;;1.15;0.52;;;17.60;52.50;;;;;;6199147;23;20592;-82
2022/01/29 04:56:58;;;;;;;1.60;0.60;;;17.60;52.30;;;;;;6224039;22;20137;-83
2022/01/29 04:59:24;;;;;;;2.28;0.70;;;17.60;52.40;;;;;;6223475;22;20641;-82
2022/01/29 05:01:52;;;;;;;0.60;0.47;;;17.60;51.80;;;;;;6199204;23;20238;-82
2022/01/29 05:04:19;;;;;;;0.60;0.40;;;17.60;52.30;;;;;;6173024;23;20155;-82
2022/01/29 05:06:47;;;;;;;1.05;0.60;;;17.60;52.00;;;;;;6123590;23;20283;-82
2022/01/29 05:09:14;;;;;;;0.88;0.55;;;17.70;52.10;;;;;;6147882;23;20201;-81
2022/01/29 05:11:45;;;;;;;2.47;0.70;;;17.70;52.70;;;;;;6148542;23;20583;-82
2022/01/29 05:14:21;;;;;;;1.25;0.73;;;17.70;52.20;;;;;;6126624;23;20166;-82
2022/01/29 05:27:25;;;;;;;1.63;0.50;;;17.60;51.90;;;;;;6211615;23;20140;-82
2022/01/29 05:29:51;;;;;;;1.20;0.70;;;17.60;51.90;;;;;;6173909;23;20144;-82
2022/01/29 05:32:17;;;;;;;1.08;0.52;;;17.60;51.90;;;;;;6198622;23;20213;-82
2022/01/29 05:34:43;;;;;;;1.95;0.82;;;17.60;51.90;;;;;;6173673;23;20143;-82
2022/01/29 05:37:08;;;;;;;1.00;0.50;;;17.60;52.40;;;;;;6122353;23;20132;-82
2022/01/29 05:39:34;;;;;;;0.85;0.50;;;17.60;52.00;;;;;;6200371;23;20460;-82
2022/01/29 05:42:00;;;;;;;1.52;0.60;;;17.60;52.40;;;;;;6176213;23;20568;-82
2022/01/29 05:44:25;;;;;;;0.98;0.50;;;17.60;52.30;;;;;;6176291;23;20515;-82
2022/01/29 05:46:52;;;;;;;1.45;0.75;;;17.60;52.10;;;;;;6200467;23;20520;-82
2022/01/29 05:49:18;;;;;;;0.85;0.60;;;17.60;52.20;;;;;;6225834;23;20136;-82
2022/01/29 05:51:43;;;;;;;0.80;0.57;;;17.70;52.30;;;;;;6175618;23;20586;-82
2022/01/29 05:54:09;;;;;;;0.75;0.57;;;17.60;52.20;;;;;;6175547;23;20506;-82
2022/01/29 05:56:35;;;;;;;1.23;0.60;;;17.60;52.10;;;;;;6175335;23;20195;-82
2022/01/29 05:59:00;;;;;;;1.80;0.63;;;17.60;52.10;;;;;;6174932;23;20207;-82
2022/01/29 06:01:26;;;;;;;1.58;0.65;;;17.60;52.10;;;;;;6225500;23;20148;-82
2022/01/29 06:03:52;;;;;;;1.20;0.77;;;17.60;51.90;;;;;;6200405;23;20312;-81
2022/01/29 06:06:17;;;;;;;1.08;0.57;;;17.60;52.10;;;;;;6175431;23;20210;-82
2022/01/29 06:08:43;;;;;;;0.60;0.50;;;17.60;52.40;;;;;;6175184;23;20148;-82
2022/01/29 06:11:08;;;;;;;0.98;0.60;;;17.60;52.10;;;;;;6175317;23;20141;-82
2022/01/29 06:13:34;;;;;;;1.10;0.80;;;17.60;52.30;;;;;;6175724;23;20171;-82
2022/01/29 06:16:02;;;;;;;0.80;0.60;;;17.50;52.20;;;;;;6175588;23;20159;-82
2022/01/29 06:18:27;;;;;;;2.05;0.95;;;17.60;52.00;;;;;;6176335;23;20650;-82
2022/01/29 06:20:56;;;;;;;0.77;0.57;;;17.60;52.00;;;;;;6174977;23;20168;-82
2022/01/29 06:23:28;;;;;;;2.17;0.60;;;17.60;51.90;;;;;;6175570;23;20149;-82
2022/01/29 06:25:57;;;;;;;2.00;0.98;;;17.60;52.00;;;;;;6178383;23;20184;-82
2022/01/29 06:28:22;;;;;;;1.08;0.65;;;17.60;52.30;;;;;;6174543;23;20152;-82
2022/01/29 06:30:49;;;;;;;1.08;0.70;;;17.60;52.00;;;;;;6175552;23;20154;-82
2022/01/29 06:33:16;;;;;;;1.20;0.57;;;17.60;52.30;;;;;;6124971;23;20538;-82
2022/01/29 06:35:45;;;;;;;1.27;0.60;;;17.60;52.60;;;;;;6149388;23;20159;-82
2022/01/29 06:38:12;;;;;;;1.15;0.80;;;17.50;52.50;;;;;;6175976;23;20567;-82
2022/01/29 06:40:38;;;;;;;0.68;0.43;;;17.50;52.40;;;;;;6200028;23;20178;-82
2022/01/29 06:43:06;;;;;;;1.10;0.60;;;17.50;52.40;;;;;;6174862;23;20523;-81
2022/01/29 06:45:32;;;;;;;0.85;0.60;;;17.50;52.70;;;;;;6199840;23;20180;-82
2022/01/29 06:47:58;;;;;;;0.82;0.52;;;17.40;52.60;;;;;;6175286;23;20175;-83
2022/01/29 06:50:24;;;;;;;1.30;0.70;;;17.50;52.50;;;;;;6175490;23;20147;-82
2022/01/29 06:52:50;;;;;;;1.48;0.77;;;17.50;52.50;;;;;;6200050;23;20174;-82
2022/01/29 06:55:15;;;;;;;0.65;0.50;;;17.50;52.60;;;;;;6200406;23;20223;-82
2022/01/29 06:57:41;;;;;;;2.17;0.63;;;17.40;52.60;;;;;;6175151;23;20159;-82
2022/01/29 07:00:08;;;;;;;0.85;0.60;;;17.40;52.40;;;;;;6174707;23;20196;-81
2022/01/29 07:02:34;;;;;;;1.58;0.70;;;17.40;52.70;;;;;;6175232;23;20156;-82
2022/01/29 07:05:00;;;;;;;1.10;0.50;;;17.50;52.30;;;;;;6199511;23;20241;-82
2022/01/29 07:07:26;;;;;;;1.25;0.57;;;17.50;52.60;;;;;;6174726;23;20548;-82
2022/01/29 07:09:52;;;;;;;2.42;0.70;;;17.50;53.20;;;;;;6199656;23;20133;-82
2022/01/29 07:12:18;;;;;;;1.02;0.52;;;17.50;52.30;;;;;;6175059;23;20187;-82
2022/01/29 07:14:43;;;;;;;1.80;0.50;;;17.50;52.30;;;;;;6200495;23;20148;-82
2022/01/29 07:17:11;;;;;;;0.60;0.60;;;17.50;52.50;;;;;;6175007;23;20152;-82
2022/01/29 07:19:38;;;;;;;1.05;0.57;;;17.50;52.30;;;;;;6175105;23;20148;-82
2022/01/29 07:22:04;;;;;;;1.42;0.57;;;17.50;52.60;;;;;;6175394;23;20564;-81
2022/01/29 07:24:31;;;;;;;0.68;0.47;;;17.40;52.80;;;;;;6199908;23;20133;-81
2022/01/29 07:26:56;;;;;;;1.17;0.50;;;17.30;52.70;;;;;;6174231;23;20504;-82
2022/01/29 07:29:25;;;;;;;0.90;0.63;;;17.40;52.80;;;;;;6174882;23;20147;-82
2022/01/29 07:31:56;;;;;;;1.73;0.60;;;17.40;52.80;;;;;;6149016;23;20174;-81
2022/01/29 07:34:25;;;;;;;2.67;0.80;;;17.40;52.70;;;;;;6149775;23;20148;-82
2022/01/29 07:36:55;;;;;;;0.80;0.50;;;17.40;52.80;;;;;;6124645;23;20535;-82
2022/01/29 07:39:23;;;;;;;2.00;0.70;;;17.30;52.90;;;;;;6124543;23;20234;-81
2022/01/29 07:41:51;;;;;;;1.10;0.50;;;17.30;52.80;;;;;;6124353;23;20160;-82
2022/01/29 07:44:21;;;;;;;0.90;0.50;;;17.30;52.80;;;;;;6124904;23;20152;-82
2022/01/29 07:46:47;;;;;;;2.65;0.70;;;17.40;52.90;;;;;;6148465;23;20394;-82
2022/01/29 07:49:13;;;;;;;1.38;0.60;;;17.40;53.00;;;;;;6174782;23;20168;-82
2022/01/29 07:51:41;;;;;;;1.15;0.60;;;17.40;53.20;;;;;;6199553;23;20512;-82
2022/01/29 07:54:08;;;;;;;0.85;0.52;;;17.40;53.10;;;;;;6148728;23;20179;-81
2022/01/29 07:56:36;;;;;;;1.08;0.55;;;17.40;53.00;;;;;;6198883;23;20246;-81
2022/01/29 07:59:03;;;;;;;1.08;0.60;;;17.50;52.90;;;;;;6156692;23;20200;-82
2022/01/29 08:01:28;;;;;;;1.17;0.60;;;17.50;52.70;;;;;;6224975;23;20239;-83
2022/01/29 08:03:54;;;;;;;1.20;0.50;;;17.60;52.80;;;;;;6225575;23;20159;-82
2022/01/29 08:06:22;;;;;;;1.73;0.80;;;17.60;52.50;;;;;;6251424;22;20256;-82
2022/01/29 08:08:49;;;;;;;1.38;0.50;;;17.60;52.40;;;;;;6199705;23;20206;-81
2022/01/29 08:11:15;;;;;;;1.58;0.70;;;17.70;52.20;;;;;;6225683;23;20198;-82
2022/01/29 08:13:43;;;;;;;1.05;0.85;;;17.80;52.30;;;;;;6224968;23;20148;-82
2022/01/29 08:16:09;;;;;;;0.90;0.60;;;17.80;52.10;;;;;;6200889;23;20159;-81
2022/01/29 08:18:35;;;;;;;1.30;0.52;;;17.90;51.70;;;;;;6200312;23;20152;-81
2022/01/29 08:21:00;;;;;;;1.75;0.85;;;18.00;51.50;;;;;;6199965;23;20231;-81
2022/01/29 08:23:26;;;;;;;4.05;0.80;;;18.00;51.40;;;;;;6200395;23;20594;-80
2022/01/29 08:25:53;;;;;;;0.40;0.40;;;18.00;51.20;;;;;;6200847;23;20683;-80
2022/01/29 08:28:19;;;;;;;1.50;0.60;;;18.10;51.00;;;;;;6201331;23;20564;-81
2022/01/29 08:30:46;;;;;;;0.82;0.60;;;18.20;50.50;;;;;;6123058;23;20159;-81
2022/01/29 08:33:17;;;;;;;1.42;0.50;;;18.20;50.50;;;;;;6197410;23;20152;-81
2022/01/29 08:35:43;;;;;;;2.22;0.60;;;18.20;50.10;;;;;;6200663;23;20297;-82
2022/01/29 08:38:09;;;;;;;0.88;0.65;;;18.30;50.30;;;;;;6199097;23;20148;-82
2022/01/29 08:40:35;;;;;;;1.60;0.47;;;18.30;49.90;;;;;;6223588;23;20128;-83
2022/01/29 08:43:00;;;;;;;2.30;0.77;;;18.30;50.10;;;;;;6225013;23;20149;-82
2022/01/29 08:45:26;;;;;;;0.70;0.50;;;18.30;50.20;;;;;;6224176;23;20596;-82
2022/01/29 08:47:52;;;;;;;0.60;0.50;;;18.40;50.40;;;;;;6122549;23;20137;-82
2022/01/29 08:50:17;;;;;;;1.13;0.52;;;18.40;50.30;;;;;;6248689;22;20140;-81
2022/01/29 08:52:43;;;;;;;0.55;0.50;;;18.30;50.00;;;;;;6222456;23;20152;-80
2022/01/29 08:55:09;;;;;;;3.05;0.63;;;18.40;50.10;;;;;;6121596;23;20137;-82
2022/01/29 08:57:36;;;;;;;1.50;0.70;;;18.40;50.50;;;;;;6247754;22;20160;-81
2022/01/29 09:00:04;;;;;;;6.00;0.73;;;18.30;50.80;;;;;;6176227;23;20196;-82
2022/01/29 09:02:30;;;;;;;1.65;0.70;;;18.40;50.80;;;;;;6197971;23;20615;-80
2022/01/29 09:05:10;;;;;;;9.68;0.90;;;18.40;51.10;;;;;;6224523;23;20604;-80
2022/01/29 09:07:36;;;;;;;1.50;0.50;;;18.40;51.30;;;;;;6110291;23;20170;-82
2022/01/29 09:10:05;;;;;;;3.17;0.60;;;18.50;51.20;;;;;;6158352;23;20147;-79
2022/01/29 09:12:32;;;;;;;1.67;0.45;;;18.40;51.10;;;;;;6184133;23;20154;-81
2022/01/29 09:14:58;;;;;;;0.60;0.40;;;18.40;51.00;;;;;;6157654;23;20143;-81
2022/01/29 09:17:33;;;;;;;1.00;0.40;;;18.50;50.80;;;;;;6157560;23;20171;-80
2022/01/29 09:20:06;;;;;;;1.13;0.50;;;18.50;50.80;;;;;;6183173;23;20233;-80
2022/01/29 09:22:32;;;;;;;1.92;0.50;;;18.50;50.80;;;;;;6158634;23;20603;-80
2022/01/29 09:25:08;;;;;;;2.70;0.70;;;18.70;50.70;;;;;;6183262;23;20151;-80
2022/01/29 09:27:37;;;;;;;2.20;0.40;;;18.50;50.50;;;;;;6090890;23;20494;-81
2022/01/29 09:30:05;;;;;;;2.78;0.80;;;18.50;50.70;;;;;;6109292;23;20158;-80
2022/01/29 09:32:31;;;;;;;2.53;0.65;;;18.50;50.60;;;;;;6157486;23;20274;-80
2022/01/29 09:34:57;;;;;;;3.47;0.80;;;18.60;50.70;;;;;;6157496;23;20145;-80
2022/01/29 09:37:23;;;;;;;3.25;0.70;;;18.60;50.70;;;;;;6157711;23;20225;-81
2022/01/29 09:39:52;;;;;;;2.45;0.90;;;18.60;50.70;;;;;;6109727;23;20189;-83
2022/01/29 09:42:18;;;;;;;2.30;0.50;;;18.60;50.80;;;;;;6133882;23;20146;-82
2022/01/29 09:44:51;;;;;;;2.33;0.60;;;18.60;50.70;;;;;;6165645;23;20151;-82
2022/01/29 09:47:17;;;;;;;1.75;0.75;;;18.70;50.70;;;;;;6177222;23;20148;-84
2022/01/29 09:49:43;;;;;;;4.03;0.60;;;18.60;50.80;;;;;;6225104;23;20147;-85
2022/01/29 09:52:09;;;;;;;1.63;0.80;;;18.60;51.30;;;;;;6198871;23;20223;-81
2022/01/29 09:54:37;;;;;;;6.63;0.80;;;18.70;51.40;;;;;;6222515;23;20132;-83
2022/01/29 09:57:10;;;;;;;3.15;0.77;;;18.70;51.30;;;;;;6186769;23;20158;-83
2022/01/29 09:59:35;;;;;;;4.32;0.60;;;18.70;51.70;;;;;;6125755;23;20644;-80
2022/01/29 10:02:14;;;;;;;4.00;0.68;;;18.80;51.50;;;;;;6210296;23;20146;-81
2022/01/29 10:04:56;;;;;;;2.63;0.57;;;18.80;52.00;;;;;;6210526;23;20142;-81
2022/01/29 10:07:29;;;;;;;4.30;0.70;;;18.80;51.80;;;;;;6209855;23;20162;-82
2022/01/29 10:09:58;;;;;;;3.17;0.90;;;18.70;52.20;;;;;;6184351;23;20505;-81
2022/01/29 10:12:28;;;;;;;2.38;0.75;;;18.70;52.40;;;;;;6182939;23;20163;-81
2022/01/29 10:14:59;;;;;;;8.27;0.93;;;18.70;51.90;;;;;;6183984;23;20447;-82
2022/01/29 10:17:51;;;;;;;3.55;0.90;;;18.70;51.90;;;;;;6185834;23;20618;-81
2022/01/29 10:20:25;;;;;;;2.85;0.60;;;18.70;52.10;;;;;;6184943;23;20147;-84
2022/01/29 10:22:51;;;;;;;3.40;0.70;;;18.70;51.90;;;;;;6188461;23;20210;-83
2022/01/29 10:25:23;;;;;;;2.75;0.77;;;18.70;51.70;;;;;;6189237;23;20259;-83
2022/01/29 10:28:08;;;;;;;2.22;0.75;;;18.70;52.00;;;;;;6212473;23;20168;-84
2022/01/29 10:30:37;;;;;;;2.50;0.80;;;18.70;52.40;;;;;;6221192;23;20219;-83
2022/01/29 10:33:24;;;;;;;5.00;0.70;;;18.70;52.40;;;;;;6247712;23;20209;-83
2022/01/29 10:35:54;;;;;;;4.82;0.88;;;18.60;52.30;;;;;;6219349;23;20153;-82
2022/01/29 10:38:24;;;;;;;4.25;0.60;;;18.60;52.30;;;;;;6169046;23;20659;-81
2022/01/29 10:41:26;;;;;;;4.15;0.90;;;18.70;52.30;;;;;;6184046;23;20148;-81
2022/01/29 10:44:10;;;;;;;3.63;0.63;;;18.60;52.70;;;;;;6206206;23;20132;-81
2022/01/29 10:47:10;;;;;;;2.08;0.80;;;18.60;52.40;;;;;;6221016;23;20294;-81
2022/01/29 10:49:58;;;;;;;5.22;0.95;;;18.70;52.80;;;;;;6227373;22;20203;-80
2022/01/29 10:52:36;;;;;;;2.92;0.82;;;18.70;53.10;;;;;;6199438;23;20151;-81
2022/01/29 10:55:06;;;;;;;4.45;0.85;;;18.60;53.00;;;;;;6195002;23;20580;-81
2022/01/29 10:57:37;;;;;;;4.95;0.80;;;18.60;53.00;;;;;;6219975;23;20153;-81
2022/01/29 11:00:05;;;;;;;11.23;1.40;;;18.60;52.90;;;;;;6192816;23;20284;-81
2022/01/29 11:03:25;;;;;;;7.60;1.27;;;18.60;53.40;;;;;;6193509;23;20197;-80
2022/01/29 11:05:32;;;;;;;4.88;1.02;;;18.70;53.20;;;;;;6170731;23;20223;-80
2022/01/29 11:08:00;;;;;;;4.80;0.90;;;18.70;53.70;;;;;;6243429;23;20190;-81
2022/01/29 11:10:27;;;;;;;3.85;0.88;;;18.70;53.70;;;;;;6190178;23;20146;-80
2022/01/29 11:12:53;;;;;;;6.65;1.05;;;18.70;53.60;;;;;;6213638;23;20649;-80
2022/01/29 11:15:25;;;;;;;4.03;0.80;;;18.70;53.60;;;;;;6189214;23;20177;-81
2022/01/29 11:17:51;;;;;;;2.17;0.70;;;18.70;53.80;;;;;;6213201;23;20146;-80
2022/01/29 11:20:19;;;;;;;4.32;0.90;;;18.80;53.70;;;;;;6162727;23;20161;-81
2022/01/29 11:22:51;;;;;;;2.83;0.80;;;18.80;53.70;;;;;;6139829;23;20146;-80
2022/01/29 11:25:21;;;;;;;2.40;0.82;;;18.80;53.40;;;;;;6166079;23;20198;-80
2022/01/29 11:27:46;;;;;;;5.40;1.10;;;18.80;54.30;;;;;;6188766;23;20150;-80
2022/01/29 11:30:28;;;;;;;2.35;0.80;;;18.80;53.60;;;;;;6185150;23;20185;-81
2022/01/29 11:32:53;;;;;;;4.20;1.33;;;18.80;53.50;;;;;;6186144;23;20233;-79
2022/01/29 11:35:30;;;;;;;6.43;1.10;;;18.80;53.20;;;;;;6210225;23;20181;-79
2022/01/29 11:38:20;;;;;;;6.88;1.13;;;18.90;53.40;;;;;;6160294;23;20146;-80
2022/01/29 11:40:59;;;;;;;1.98;0.85;;;18.90;53.70;;;;;;6152012;23;20152;-80
2022/01/29 11:43:34;;;;;;;5.25;1.15;;;18.90;54.00;;;;;;6121039;23;20159;-80
2022/01/29 11:46:07;;;;;;;4.80;1.10;;;18.90;54.40;;;;;;6200251;23;20242;-80
2022/01/29 11:48:56;;;;;;;6.15;1.02;;;18.90;54.80;;;;;;6154184;23;20169;-80
2022/01/29 11:51:39;;;;;;;3.75;0.85;;;18.90;54.20;;;;;;6151535;23;20550;-81
2022/01/29 11:54:04;;;;;;;8.15;1.10;;;19.00;53.70;;;;;;6121407;23;20129;-83
2022/01/29 11:57:10;;;;;;;5.80;0.77;;;18.90;52.40;;;;;;6172570;23;20159;-80
2022/01/29 11:59:40;;;;;;;9.15;1.10;;;19.00;52.10;;;;;;6164683;23;20212;-80
2022/01/29 12:02:43;;;;;;;6.00;1.27;;;19.00;52.70;;;;;;6171676;23;20160;-79
2022/01/29 12:05:14;;;;;;;9.35;1.52;;;19.00;53.50;;;;;;6146124;23;20190;-80
2022/01/29 12:08:10;;;;;;;4.03;0.95;;;19.00;53.80;;;;;;6144945;23;20283;-82
2022/01/29 12:10:52;;;;;;;5.32;1.20;;;19.00;53.50;;;;;;6146768;23;20159;-82
2022/01/29 12:13:18;;;;;;;4.97;1.13;;;19.00;54.00;;;;;;6085165;23;20153;-83
2022/01/29 12:15:43;;;;;;;7.40;0.80;;;19.00;53.70;;;;;;6064094;23;20228;-83
2022/01/29 12:18:26;;;;;;;6.43;1.10;;;19.00;53.10;;;;;;6017226;23;20161;-84
2022/01/29 12:21:08;;;;;;;7.88;1.15;;;19.10;53.20;;;;;;6065948;23;20245;-84
2022/01/29 12:23:50;;;;;;;5.38;1.10;;;19.10;53.50;;;;;;6007971;23;20170;-84
2022/01/29 12:26:19;;;;;;;9.07;1.05;;;19.10;53.10;;;;;;6007620;23;20261;-81
2022/01/29 12:28:49;;;;;;;5.32;0.90;;;19.20;53.50;;;;;;6009185;23;20159;-82
2022/01/29 12:31:17;;;;;;;5.80;0.98;;;19.20;53.40;;;;;;6009568;23;20170;-83
2022/01/29 12:33:46;;;;;;;2.65;0.70;;;19.20;53.80;;;;;;6029498;23;20157;-83
2022/01/29 12:36:11;;;;;;;6.22;1.10;;;19.10;52.50;;;;;;6036213;23;20702;-82
2022/01/29 12:38:41;;;;;;;6.47;1.02;;;19.20;53.20;;;;;;6066673;23;20232;-83
2022/01/29 12:41:12;;;;;;;4.93;0.98;;;19.10;52.80;;;;;;6085247;23;20193;-83
2022/01/29 12:43:54;;;;;;;4.63;1.00;;;19.10;53.20;;;;;;6134299;23;20164;-83
2022/01/29 12:46:25;;;;;;;2.75;1.10;;;19.20;53.00;;;;;;6131765;23;20642;-85
2022/01/29 12:49:11;;;;;;;10.05;1.08;;;19.20;53.60;;;;;;6155180;23;20162;-82
2022/01/29 12:51:57;;;;;;;3.33;0.68;;;19.10;53.10;;;;;;6131939;23;20147;-82
2022/01/29 12:54:26;;;;;;;4.10;1.15;;;19.20;53.50;;;;;;6133621;23;20204;-86
2022/01/29 12:56:59;;;;;;;5.57;0.88;;;19.20;53.20;;;;;;6135927;23;20174;-82
2022/01/29 12:59:25;;;;;;;1.80;0.80;;;19.10;54.10;;;;;;6159072;23;20264;-81
2022/01/29 13:01:57;;;;;;;6.90;1.05;;;19.20;53.60;;;;;;6129115;23;20587;-82
2022/01/29 13:04:30;;;;;;;2.67;0.70;;;19.20;53.20;;;;;;6223495;23;20143;-82
2022/01/29 13:07:05;;;;;;;4.88;1.05;;;19.20;53.50;;;;;;6198391;23;20183;-84
2022/01/29 13:09:35;;;;;;;3.22;0.98;;;19.10;54.00;;;;;;6222610;23;20334;-81